Aérodrome :
LOGIN :

S'inscrire | Disclaimer

   EN    FR    IT 

 










Légende :    VFR   VFR Marginal   IFR   IFR Intensif   IFR Très Intensif
Visi : 
Plafond : 
>= 8 km
>= 3000ft
5 à 8 km
1000 à 3000 ft
1500m à 5 km
500 à 1000 ft
800 à 1500m
200 à 500 ft
< 800m
< 200 ft
Symboles :   Orages  Brouillard  Fortes neiges  Fortes précipitations  Vent > 20 kt
SIGMETs :   Divers  Orages  Givrage  Turbulence  Onde Orograph.  Cendres Volcan.






- Altitude de l'aérodrome : 287 ft


LFRL - Lanveoc Poulmic

DERNIER METAR :
  • 061930Z AUTO 27008KT 250V310 9999 BKN010 OVC016 11/10 Q1015

METARs EXPIRÉS :
  • 061900Z AUTO 28008KT 9999 3500 -RADZ FEW012 BKN017 BKN022 11/10 Q1015
  • 061830Z AUTO 28010KT 9999 FEW006 SCT012 BKN019 11/10 Q1015
  • 061800Z AUTO 27013KT 9999 BKN031 OVC038 12/09 Q1015
  • 061730Z AUTO 26012KT 9999 OVC040 12/10 Q1014
  • 061700Z AUTO 26010KT 9999 OVC040 12/10 Q1014

TAF TAF LFRL
Valide du 06 à 12h jusqu'au 07 à 12h UTC


061100Z 0612/0712 23015KT 4000 -RADZ OVC003
TEMPO 0612/0614 23020G30KT 2000 RA OVC002
PROB30
TEMPO 0612/0614 0800 -DZ FG VV///
BECMG 0614/0616 9999 NSW BKN008
PROB40
TEMPO 0616/0621 RA



MET'MAP, la Météo Aéronautique d'un coup d'oeil ! - Copyright ORBIFLY Décembre 2007 - Disclaimer

ORBIFLY MET'MAP TEAM :

Programmation & Développement : Alexandra Zaïnal
Sur une idée originale de : Baudouin d'Aumeries
Assistance à la programmation : Marc-Olivier Méhu
Soutien technique & logistique : Manuel Goepfert

Contact : metmap@orbifly.com




SOURCES & CREDITS :

   NOAA